createdAt,value
2018-10-09T00:00:30.154Z,981.28
2018-10-09T00:01:30.149Z,981.28
2018-10-09T00:02:30.111Z,981.27
2018-10-09T00:03:30.109Z,981.20
2018-10-09T00:04:30.107Z,981.20
2018-10-09T00:05:30.100Z,981.18
2018-10-09T00:06:30.128Z,981.19
2018-10-09T00:07:30.101Z,981.19
2018-10-09T00:08:30.094Z,981.24
2018-10-09T00:09:30.093Z,981.29
2018-10-09T00:10:30.117Z,981.34
2018-10-09T00:11:30.085Z,981.35
2018-10-09T00:12:30.087Z,981.41
2018-10-09T00:13:30.078Z,981.42
2018-10-09T00:14:30.078Z,981.43
2018-10-09T00:15:30.106Z,981.45
2018-10-09T00:16:30.070Z,981.46
2018-10-09T00:17:30.074Z,981.44
2018-10-09T00:18:30.066Z,981.37
2018-10-09T00:19:30.062Z,981.34
2018-10-09T00:20:30.094Z,981.32
2018-10-09T00:21:30.058Z,981.30
2018-10-09T00:22:30.056Z,981.34
2018-10-09T00:23:30.054Z,981.36
2018-10-09T00:24:30.051Z,981.38
2018-10-09T00:25:30.075Z,981.41
2018-10-09T00:26:30.070Z,981.40
2018-10-09T00:27:30.039Z,981.45
2018-10-09T00:28:30.035Z,981.48
2018-10-09T00:29:30.031Z,981.50
2018-10-09T00:30:30.031Z,981.51
2018-10-09T00:31:30.055Z,981.53
2018-10-09T00:32:30.021Z,981.53
2018-10-09T00:33:30.019Z,981.55
2018-10-09T00:34:30.015Z,981.54
2018-10-09T00:35:30.017Z,981.54
2018-10-09T00:36:30.045Z,981.56
2018-10-09T00:37:30.007Z,981.60
2018-10-09T00:38:30.007Z,981.54
2018-10-09T00:39:30.004Z,981.54
2018-10-09T00:40:29.996Z,981.58
2018-10-09T00:41:30.025Z,981.62
2018-10-09T00:42:29.995Z,981.63
2018-10-09T00:43:29.992Z,981.66
2018-10-09T00:44:29.988Z,981.68
2018-10-09T00:45:29.981Z,981.73
2018-10-09T00:46:30.008Z,981.78
2018-10-09T00:47:29.975Z,981.79
2018-10-09T00:48:29.974Z,981.76
2018-10-09T00:49:29.972Z,981.78
2018-10-09T00:50:30.025Z,981.76
2018-10-09T00:51:29.968Z,981.73
2018-10-09T00:52:29.961Z,981.77
2018-10-09T00:53:29.962Z,981.72
2018-10-09T00:54:29.957Z,981.74
2018-10-09T00:55:29.983Z,981.70
2018-10-09T00:56:29.945Z,981.65
2018-10-09T00:57:29.973Z,981.64
2018-10-09T00:58:29.950Z,981.61
2018-10-09T00:59:29.941Z,981.62
2018-10-09T01:00:29.968Z,981.62
2018-10-09T01:01:29.934Z,981.61
2018-10-09T01:02:29.936Z,981.63
2018-10-09T01:03:29.924Z,981.61
2018-10-09T01:04:29.926Z,981.62
2018-10-09T01:05:29.950Z,981.59
2018-10-09T01:06:29.920Z,981.59
2018-10-09T01:07:29.933Z,981.61
2018-10-09T01:08:29.917Z,981.58
2018-10-09T01:09:29.916Z,981.59
2018-10-09T01:10:29.935Z,981.59
2018-10-09T01:11:29.904Z,981.62
2018-10-09T01:12:29.906Z,981.60
2018-10-09T01:13:29.901Z,981.60
2018-10-09T01:14:29.897Z,981.63
2018-10-09T01:15:29.918Z,981.63
2018-10-09T01:16:29.894Z,981.63
2018-10-09T01:17:29.887Z,981.60
2018-10-09T01:18:29.885Z,981.63
2018-10-09T01:19:29.879Z,981.64
2018-10-09T01:20:29.901Z,981.63
2018-10-09T01:21:29.875Z,981.60
2018-10-09T01:22:29.908Z,981.65
2018-10-09T01:23:29.869Z,981.67
2018-10-09T01:24:29.874Z,981.69
2018-10-09T01:25:29.864Z,981.74
2018-10-09T01:26:29.885Z,981.73
2018-10-09T01:27:29.856Z,981.77
2018-10-09T01:28:29.850Z,981.74
2018-10-09T01:29:29.852Z,981.73
2018-10-09T01:30:29.877Z,981.73
2018-10-09T01:31:29.849Z,981.71
2018-10-09T01:32:29.873Z,981.68
2018-10-09T01:33:29.841Z,981.64
2018-10-09T01:34:29.842Z,981.62
2018-10-09T01:35:29.848Z,981.70
2018-10-09T01:36:29.855Z,981.67
2018-10-09T01:37:29.828Z,981.63
2018-10-09T01:38:29.825Z,981.64
2018-10-09T01:39:29.821Z,981.61
2018-10-09T01:40:29.845Z,981.60
2018-10-09T01:41:29.815Z,981.58
2018-10-09T01:42:29.810Z,981.56
2018-10-09T01:43:29.814Z,981.52
2018-10-09T01:44:29.807Z,981.55
2018-10-09T01:45:29.833Z,981.55
2018-10-09T01:46:29.799Z,981.57
2018-10-09T01:47:29.789Z,981.54
2018-10-09T01:48:29.795Z,981.54
2018-10-09T01:49:29.793Z,981.52
2018-10-09T01:50:29.810Z,981.52
2018-10-09T01:51:29.783Z,981.52
2018-10-09T01:52:29.806Z,981.50
2018-10-09T01:53:29.781Z,981.53
2018-10-09T01:54:29.774Z,981.52
2018-10-09T01:55:29.798Z,981.46
2018-10-09T01:56:29.769Z,981.46
2018-10-09T01:57:29.798Z,981.46
2018-10-09T01:58:29.762Z,981.48
2018-10-09T01:59:29.760Z,981.51
2018-10-09T02:00:29.756Z,981.50
2018-10-09T02:01:29.780Z,981.47
2018-10-09T02:02:29.754Z,981.54
2018-10-09T02:03:29.740Z,981.53
2018-10-09T02:04:29.743Z,981.53
2018-10-09T02:05:29.741Z,981.50
2018-10-09T02:06:29.763Z,981.50
2018-10-09T02:07:29.734Z,981.51
2018-10-09T02:08:29.733Z,981.51
2018-10-09T02:09:29.728Z,981.55
2018-10-09T02:10:29.724Z,981.49
2018-10-09T02:11:29.748Z,981.48
2018-10-09T02:12:29.719Z,981.45
2018-10-09T02:13:29.712Z,981.53
2018-10-09T02:14:29.710Z,981.49
2018-10-09T02:15:29.713Z,981.49
2018-10-09T02:16:29.733Z,981.51
2018-10-09T02:17:29.702Z,981.48
2018-10-09T02:18:29.701Z,981.51
2018-10-09T02:19:29.692Z,981.52
2018-10-09T02:20:29.702Z,981.50
2018-10-09T02:21:29.718Z,981.52
2018-10-09T02:22:29.683Z,981.51
2018-10-09T02:23:29.681Z,981.51
2018-10-09T02:24:29.673Z,981.47
2018-10-09T02:25:29.678Z,981.46
2018-10-09T02:26:29.704Z,981.47
2018-10-09T02:27:29.696Z,981.49
2018-10-09T02:28:29.672Z,981.49
2018-10-09T02:29:29.662Z,981.46
2018-10-09T02:30:29.660Z,981.46
2018-10-09T02:31:29.656Z,981.49
2018-10-09T02:32:29.683Z,981.49
2018-10-09T02:33:29.738Z,981.47
2018-10-09T02:34:29.647Z,981.46
2018-10-09T02:35:29.645Z,981.46
2018-10-09T02:36:29.643Z,981.46
2018-10-09T02:37:29.663Z,981.45
2018-10-09T02:38:29.635Z,981.46
2018-10-09T02:39:29.632Z,981.44
2018-10-09T02:40:29.628Z,981.43
2018-10-09T02:41:29.654Z,981.39
2018-10-09T02:42:29.620Z,981.37
2018-10-09T02:43:29.615Z,981.40
2018-10-09T02:44:29.618Z,981.38
2018-10-09T02:45:29.611Z,981.33
2018-10-09T02:46:29.635Z,981.29
2018-10-09T02:47:29.603Z,981.29
2018-10-09T02:48:29.600Z,981.28
2018-10-09T02:49:29.600Z,981.28
2018-10-09T02:50:29.596Z,981.29
2018-10-09T02:51:29.639Z,981.30
2018-10-09T02:52:29.589Z,981.28
2018-10-09T02:53:29.584Z,981.32
2018-10-09T02:54:29.581Z,981.30
2018-10-09T02:55:29.576Z,981.37
2018-10-09T02:56:29.605Z,981.35
2018-10-09T02:57:29.572Z,981.39
2018-10-09T02:58:29.562Z,981.43
2018-10-09T02:59:29.566Z,981.40
2018-10-09T03:00:29.589Z,981.43
2018-10-09T03:01:29.553Z,981.49
2018-10-09T03:02:29.583Z,981.44
2018-10-09T03:03:29.549Z,981.46
2018-10-09T03:04:29.545Z,981.44
2018-10-09T03:05:29.541Z,981.43
2018-10-09T03:06:29.565Z,981.44
2018-10-09T03:07:29.535Z,981.45
2018-10-09T03:08:29.540Z,981.44
2018-10-09T03:09:29.530Z,981.42
2018-10-09T03:10:29.560Z,981.43
2018-10-09T03:11:29.519Z,981.41
2018-10-09T03:12:29.520Z,981.41
2018-10-09T03:13:29.542Z,981.40
2018-10-09T03:14:29.516Z,981.42
2018-10-09T03:15:29.504Z,981.42
2018-10-09T03:16:29.535Z,981.40
2018-10-09T03:17:29.504Z,981.38
2018-10-09T03:18:29.497Z,981.38
2018-10-09T03:19:29.635Z,981.39
2018-10-09T03:20:29.525Z,981.39
2018-10-09T03:21:29.515Z,981.39
2018-10-09T03:22:29.483Z,981.40
2018-10-09T03:23:29.479Z,981.39
2018-10-09T03:24:29.479Z,981.38
2018-10-09T03:25:29.476Z,981.36
2018-10-09T03:26:29.507Z,981.35
2018-10-09T03:27:29.466Z,981.35
2018-10-09T03:28:29.462Z,981.34
2018-10-09T03:29:29.461Z,981.33
2018-10-09T03:30:29.459Z,981.33
2018-10-09T03:31:29.484Z,981.30
2018-10-09T03:32:29.448Z,981.29
2018-10-09T03:33:29.444Z,981.28
2018-10-09T03:34:29.444Z,981.27
2018-10-09T03:35:29.440Z,981.26
2018-10-09T03:36:29.463Z,981.25
2018-10-09T03:37:29.429Z,981.24
2018-10-09T03:38:29.433Z,981.22
2018-10-09T03:39:29.424Z,981.25
2018-10-09T03:40:29.421Z,981.27
2018-10-09T03:41:29.444Z,981.28
2018-10-09T03:42:29.416Z,981.33
2018-10-09T03:43:29.414Z,981.33
2018-10-09T03:44:29.405Z,981.32
2018-10-09T03:45:29.404Z,981.34
2018-10-09T03:46:29.428Z,981.31
2018-10-09T03:47:29.396Z,981.33
2018-10-09T03:48:29.394Z,981.31
2018-10-09T03:49:29.389Z,981.28
2018-10-09T03:50:29.385Z,981.31
2018-10-09T03:51:29.409Z,981.36
2018-10-09T03:52:29.376Z,981.32
2018-10-09T03:53:29.378Z,981.34
2018-10-09T03:54:29.412Z,981.30
2018-10-09T03:55:29.366Z,981.31
2018-10-09T03:56:29.389Z,981.30
2018-10-09T03:57:29.362Z,981.32
2018-10-09T03:58:29.358Z,981.30
2018-10-09T03:59:29.350Z,981.30
2018-10-09T04:00:29.353Z,981.27
2018-10-09T04:01:29.385Z,981.28
2018-10-09T04:02:29.342Z,981.27
2018-10-09T04:03:29.339Z,981.25
2018-10-09T04:04:29.334Z,981.27
2018-10-09T04:05:29.335Z,981.27
2018-10-09T04:06:29.359Z,981.31
2018-10-09T04:07:29.323Z,981.28
2018-10-09T04:08:29.319Z,981.31
2018-10-09T04:09:29.367Z,981.29
2018-10-09T04:10:29.314Z,981.28
2018-10-09T04:11:29.340Z,981.24
2018-10-09T04:12:29.320Z,981.25
2018-10-09T04:13:34.276Z,981.28
2018-10-09T04:14:29.299Z,981.26
2018-10-09T04:15:29.290Z,981.30
2018-10-09T04:16:29.323Z,981.31
2018-10-09T04:17:29.289Z,981.32
2018-10-09T04:18:29.313Z,981.30
2018-10-09T04:19:29.283Z,981.32
2018-10-09T04:20:29.271Z,981.32
2018-10-09T04:21:29.277Z,981.32
2018-10-09T04:22:29.296Z,981.33
2018-10-09T04:23:29.265Z,981.28
2018-10-09T04:24:29.263Z,981.30
2018-10-09T04:25:29.260Z,981.31
2018-10-09T04:26:29.265Z,981.30
2018-10-09T04:27:29.279Z,981.33
2018-10-09T04:28:29.248Z,981.31
2018-10-09T04:29:29.329Z,981.30
2018-10-09T04:30:29.240Z,981.28
2018-10-09T04:31:29.245Z,981.30
2018-10-09T04:32:29.261Z,981.32
2018-10-09T04:33:29.229Z,981.32
2018-10-09T04:34:29.232Z,981.30
2018-10-09T04:35:29.233Z,981.33
2018-10-09T04:36:29.221Z,981.31
2018-10-09T04:37:29.244Z,981.32
2018-10-09T04:38:29.212Z,981.32
2018-10-09T04:39:29.212Z,981.33
2018-10-09T04:40:29.205Z,981.35
2018-10-09T04:41:29.201Z,981.36
2018-10-09T04:42:29.368Z,981.39
2018-10-09T04:43:29.215Z,981.38
2018-10-09T04:44:29.195Z,981.39
2018-10-09T04:45:29.265Z,981.39
2018-10-09T04:46:29.190Z,981.40
2018-10-09T04:47:29.210Z,981.43
2018-10-09T04:48:29.178Z,981.43
2018-10-09T04:49:29.171Z,981.43
2018-10-09T04:50:29.174Z,981.44
2018-10-09T04:51:29.169Z,981.45
2018-10-09T04:52:29.191Z,981.47
2018-10-09T04:53:29.162Z,981.45
2018-10-09T04:54:29.158Z,981.47
2018-10-09T04:55:29.154Z,981.50
2018-10-09T04:56:29.149Z,981.53
2018-10-09T04:57:30.683Z,981.51
2018-10-09T04:58:29.144Z,981.55
2018-10-09T04:59:29.139Z,981.54
2018-10-09T05:00:29.153Z,981.52
2018-10-09T05:01:29.135Z,981.51
2018-10-09T05:02:29.164Z,981.50
2018-10-09T05:03:29.129Z,981.52
2018-10-09T05:04:29.125Z,981.52
2018-10-09T05:05:29.119Z,981.50
2018-10-09T05:06:29.904Z,981.47
2018-10-09T05:07:31.222Z,981.47
2018-10-09T05:08:31.084Z,981.42
2018-10-09T05:09:30.966Z,981.38
2018-10-09T05:10:29.110Z,981.38
2018-10-09T05:11:29.100Z,981.36
2018-10-09T05:12:29.125Z,981.38
2018-10-09T05:13:29.094Z,981.39
2018-10-09T05:14:29.084Z,981.41
2018-10-09T05:15:29.084Z,981.44
2018-10-09T05:16:29.080Z,981.38
2018-10-09T05:17:29.104Z,981.42
2018-10-09T05:18:29.076Z,981.43
2018-10-09T05:19:29.095Z,981.40
2018-10-09T05:20:29.072Z,981.36
2018-10-09T05:21:29.065Z,981.38
2018-10-09T05:22:29.066Z,981.36
2018-10-09T05:23:29.084Z,981.41
2018-10-09T05:24:34.183Z,981.36
2018-10-09T05:25:29.721Z,981.40
2018-10-09T05:26:32.319Z,981.38
2018-10-09T05:27:29.073Z,981.35
2018-10-09T05:28:30.192Z,981.31
2018-10-09T05:29:29.073Z,981.29
2018-10-09T05:30:31.210Z,981.33
2018-10-09T05:31:32.204Z,981.34
2018-10-09T05:32:30.198Z,981.35
2018-10-09T05:33:32.390Z,981.34
2018-10-09T05:34:29.053Z,981.38
2018-10-09T05:35:29.018Z,981.37
2018-10-09T05:36:29.014Z,981.42
2018-10-09T05:37:29.062Z,981.40
2018-10-09T05:38:29.687Z,981.43
2018-10-09T05:39:29.299Z,981.44
2018-10-09T05:40:29.258Z,981.46
2018-10-09T05:41:33.013Z,981.45
2018-10-09T05:42:30.684Z,981.43
2018-10-09T05:43:31.267Z,981.45
2018-10-09T05:44:29.229Z,981.40
2018-10-09T05:45:28.981Z,981.41
2018-10-09T05:46:29.012Z,981.43
2018-10-09T05:47:28.964Z,981.43
2018-10-09T05:48:28.999Z,981.44
2018-10-09T05:49:29.006Z,981.40
2018-10-09T05:50:29.168Z,981.41
2018-10-09T05:51:28.971Z,981.37
2018-10-09T05:52:29.009Z,981.37
2018-10-09T05:53:28.967Z,981.38
2018-10-09T05:54:28.961Z,981.37
2018-10-09T05:55:28.945Z,981.40
2018-10-09T05:56:28.978Z,981.37
2018-10-09T05:57:28.942Z,981.38
2018-10-09T05:58:28.941Z,981.35
2018-10-09T05:59:28.971Z,981.35
2018-10-09T06:00:28.939Z,981.38
2018-10-09T06:01:28.938Z,981.35
2018-10-09T06:02:28.965Z,981.40
2018-10-09T06:03:28.919Z,981.40
2018-10-09T06:04:28.926Z,981.42
2018-10-09T06:05:28.917Z,981.39
2018-10-09T06:06:28.952Z,981.38
2018-10-09T06:07:28.910Z,981.37
2018-10-09T06:08:28.937Z,981.38
2018-10-09T06:09:28.908Z,981.36
2018-10-09T06:10:28.907Z,981.37
2018-10-09T06:11:28.903Z,981.38
2018-10-09T06:12:28.922Z,981.33
2018-10-09T06:13:28.899Z,981.40
2018-10-09T06:14:28.879Z,981.44
2018-10-09T06:15:28.974Z,981.49
2018-10-09T06:16:28.883Z,981.50
2018-10-09T06:17:28.907Z,981.51
2018-10-09T06:18:28.879Z,981.55
2018-10-09T06:19:28.873Z,981.60
2018-10-09T06:20:28.877Z,981.65
2018-10-09T06:21:28.876Z,981.61
2018-10-09T06:22:28.922Z,981.65
2018-10-09T06:23:28.875Z,981.70
2018-10-09T06:24:28.870Z,981.70
2018-10-09T06:25:28.860Z,981.76
2018-10-09T06:26:28.892Z,981.74
2018-10-09T06:27:28.861Z,981.74
2018-10-09T06:28:28.974Z,981.77
2018-10-09T06:29:28.858Z,981.80
2018-10-09T06:30:28.859Z,981.78
2018-10-09T06:31:28.866Z,981.75
2018-10-09T06:32:28.843Z,981.76
2018-10-09T06:33:28.848Z,981.74
2018-10-09T06:34:28.837Z,981.77
2018-10-09T06:35:28.835Z,981.78
2018-10-09T06:36:28.867Z,981.77
2018-10-09T06:37:28.836Z,981.84
2018-10-09T06:38:28.833Z,981.87
2018-10-09T06:39:28.834Z,981.89
2018-10-09T06:40:28.881Z,981.92
2018-10-09T06:41:28.860Z,981.95
2018-10-09T06:42:28.826Z,981.93
2018-10-09T06:43:28.823Z,982.01
2018-10-09T06:44:28.821Z,981.99
2018-10-09T06:45:28.828Z,982.02
2018-10-09T06:46:28.871Z,982.03
2018-10-09T06:47:28.867Z,982.08
2018-10-09T06:48:28.817Z,982.10
2018-10-09T06:49:28.823Z,982.14
2018-10-09T06:50:28.816Z,982.13
2018-10-09T06:51:28.848Z,982.17
2018-10-09T06:52:28.817Z,982.18
2018-10-09T06:53:28.832Z,982.17
2018-10-09T06:54:28.839Z,982.16
2018-10-09T06:55:28.814Z,982.20
2018-10-09T06:56:28.845Z,982.25
2018-10-09T06:57:28.813Z,982.22
2018-10-09T06:58:28.813Z,982.21
2018-10-09T06:59:28.813Z,982.23
2018-10-09T07:00:28.819Z,982.26
2018-10-09T07:01:28.848Z,982.27
2018-10-09T07:02:28.814Z,982.27
2018-10-09T07:03:28.814Z,982.26
2018-10-09T07:04:28.812Z,982.28
2018-10-09T07:05:28.813Z,982.31
2018-10-09T07:06:28.898Z,982.38
2018-10-09T07:07:28.817Z,982.42
2018-10-09T07:08:28.814Z,982.49
2018-10-09T07:09:28.815Z,982.49
2018-10-09T07:10:28.813Z,982.52
2018-10-09T07:11:28.845Z,982.53
2018-10-09T07:12:28.818Z,982.50
2018-10-09T07:13:28.814Z,982.53
2018-10-09T07:14:28.814Z,982.48
2018-10-09T07:15:28.815Z,982.51
2018-10-09T07:16:28.843Z,982.46
2018-10-09T07:17:28.825Z,982.53
2018-10-09T07:18:28.820Z,982.57
2018-10-09T07:19:28.816Z,982.57
2018-10-09T07:20:28.821Z,982.60
2018-10-09T07:21:28.850Z,982.58
2018-10-09T07:22:28.822Z,982.60
2018-10-09T07:23:28.824Z,982.59
2018-10-09T07:24:28.823Z,982.59
2018-10-09T07:25:28.833Z,982.58
2018-10-09T07:26:28.852Z,982.61
2018-10-09T07:27:28.820Z,982.62
2018-10-09T07:28:28.828Z,982.66
2018-10-09T07:29:28.825Z,982.65
2018-10-09T07:30:28.858Z,982.69
2018-10-09T07:31:28.876Z,982.68
2018-10-09T07:32:28.824Z,982.71
2018-10-09T07:33:28.828Z,982.77
2018-10-09T07:34:28.828Z,982.77
2018-10-09T07:35:28.860Z,982.80
2018-10-09T07:36:28.832Z,982.82
2018-10-09T07:37:28.839Z,982.78
2018-10-09T07:38:28.833Z,982.79
2018-10-09T07:39:28.832Z,982.84
2018-10-09T07:40:28.860Z,982.88
2018-10-09T07:41:28.837Z,982.91
2018-10-09T07:42:28.836Z,982.94
2018-10-09T07:43:28.839Z,982.96
2018-10-09T07:44:28.838Z,982.94
2018-10-09T07:45:28.870Z,983.01
2018-10-09T07:46:28.837Z,983.00
2018-10-09T07:47:28.844Z,983.00
2018-10-09T07:48:28.843Z,983.00
2018-10-09T07:49:28.879Z,983.05
2018-10-09T07:50:28.853Z,983.07
2018-10-09T07:51:28.881Z,983.05
2018-10-09T07:52:29.834Z,983.10
2018-10-09T07:53:28.865Z,983.09
2018-10-09T07:54:28.861Z,983.13
2018-10-09T07:55:28.867Z,983.14
2018-10-09T07:56:28.898Z,983.17
2018-10-09T07:57:28.905Z,983.19
2018-10-09T07:58:28.896Z,983.16
2018-10-09T07:59:28.879Z,983.16
2018-10-09T08:00:28.883Z,983.16
2018-10-09T08:01:28.914Z,983.15
2018-10-09T08:02:28.896Z,983.14
2018-10-09T08:03:28.895Z,983.15
2018-10-09T08:04:28.900Z,983.19
2018-10-09T08:05:28.908Z,983.17
2018-10-09T08:06:28.938Z,983.15
2018-10-09T08:07:28.911Z,983.18
2018-10-09T08:08:28.915Z,983.14
2018-10-09T08:09:28.921Z,983.14
2018-10-09T08:10:29.003Z,983.19
2018-10-09T08:11:28.953Z,983.15
2018-10-09T08:12:29.043Z,983.20
2018-10-09T08:13:28.943Z,983.21
2018-10-09T08:14:28.937Z,983.18
2018-10-09T08:15:29.192Z,983.14
2018-10-09T08:16:29.031Z,983.10
2018-10-09T08:17:28.951Z,983.15
2018-10-09T08:18:28.956Z,983.16
2018-10-09T08:19:28.957Z,983.17
2018-10-09T08:20:28.961Z,983.18
2018-10-09T08:21:29.379Z,983.19
2018-10-09T08:22:29.805Z,983.20
2018-10-09T08:23:28.980Z,983.18
2018-10-09T08:24:28.991Z,983.20
2018-10-09T08:25:28.992Z,983.21
2018-10-09T08:26:29.022Z,983.16
2018-10-09T08:27:29.000Z,983.18
2018-10-09T08:28:29.709Z,983.15
2018-10-09T08:29:29.013Z,983.16
2018-10-09T08:30:29.043Z,983.13
2018-10-09T08:31:29.017Z,983.16
2018-10-09T08:32:29.058Z,983.19
2018-10-09T08:33:29.030Z,983.20
2018-10-09T08:34:29.048Z,983.22
2018-10-09T08:35:29.709Z,983.25
2018-10-09T08:36:30.858Z,983.31
2018-10-09T08:37:29.074Z,983.30
2018-10-09T08:38:29.053Z,983.33
2018-10-09T08:39:30.541Z,983.33
2018-10-09T08:40:29.179Z,983.34
2018-10-09T08:41:29.072Z,983.35
2018-10-09T08:42:29.785Z,983.35
2018-10-09T08:43:29.078Z,983.36
2018-10-09T08:44:29.086Z,983.33
2018-10-09T08:45:29.122Z,983.37
2018-10-09T08:46:29.096Z,983.40
2018-10-09T08:47:29.102Z,983.43
2018-10-09T08:48:29.143Z,983.45
2018-10-09T08:49:29.130Z,983.42
2018-10-09T08:50:29.123Z,983.37
2018-10-09T08:51:29.131Z,983.43
2018-10-09T08:52:29.139Z,983.43
2018-10-09T08:53:29.172Z,983.42
2018-10-09T08:54:29.154Z,983.44
2018-10-09T08:55:29.479Z,983.46
2018-10-09T08:56:29.163Z,983.45
2018-10-09T08:57:29.245Z,983.46
2018-10-09T08:58:29.212Z,983.46
2018-10-09T08:59:29.195Z,983.44
2018-10-09T09:00:29.201Z,983.43
2018-10-09T09:01:29.215Z,983.47
2018-10-09T09:02:29.226Z,983.40
2018-10-09T09:03:29.300Z,983.42
2018-10-09T09:04:29.240Z,983.41
2018-10-09T09:05:29.245Z,983.43
2018-10-09T09:06:29.264Z,983.45
2018-10-09T09:07:29.264Z,983.43
2018-10-09T09:08:29.297Z,983.40
2018-10-09T09:09:29.301Z,983.40
2018-10-09T09:10:29.297Z,983.36
2018-10-09T09:11:29.327Z,983.36
2018-10-09T09:12:29.310Z,983.31
2018-10-09T09:13:29.352Z,983.34
2018-10-09T09:14:29.328Z,983.28
2018-10-09T09:15:29.447Z,983.29
2018-10-09T09:16:29.343Z,983.34
2018-10-09T09:17:29.355Z,983.36
2018-10-09T09:18:29.389Z,983.38
2018-10-09T09:19:29.374Z,983.35
2018-10-09T09:20:29.424Z,983.38
2018-10-09T09:21:29.387Z,983.36
2018-10-09T09:22:29.398Z,983.39
2018-10-09T09:23:29.430Z,983.41
2018-10-09T09:24:29.411Z,983.37
2018-10-09T09:25:29.418Z,983.35
2018-10-09T09:26:29.495Z,983.32
2018-10-09T09:27:29.524Z,983.29
2018-10-09T09:28:29.471Z,983.29
2018-10-09T09:29:29.454Z,983.26
2018-10-09T09:30:29.461Z,983.24
2018-10-09T09:31:29.459Z,983.27
2018-10-09T09:32:29.604Z,983.25
2018-10-09T09:33:29.504Z,983.23
2018-10-09T09:34:29.485Z,983.22
2018-10-09T09:35:29.498Z,983.23
2018-10-09T09:36:29.523Z,983.22
2018-10-09T09:37:29.504Z,983.23
2018-10-09T09:38:30.337Z,983.22
2018-10-09T09:39:29.543Z,983.27
2018-10-09T09:40:29.523Z,983.26
2018-10-09T09:41:29.530Z,983.28
2018-10-09T09:42:29.536Z,983.23
2018-10-09T09:43:29.545Z,983.27
2018-10-09T09:44:29.577Z,983.23
2018-10-09T09:45:30.385Z,983.24
2018-10-09T09:46:29.571Z,983.21
2018-10-09T09:47:29.572Z,983.23
2018-10-09T09:48:29.609Z,983.20
2018-10-09T09:49:29.581Z,983.18
2018-10-09T09:50:29.589Z,983.16
2018-10-09T09:51:30.476Z,983.18
2018-10-09T09:52:29.601Z,983.22
2018-10-09T09:53:29.648Z,983.20
2018-10-09T09:54:29.614Z,983.19
2018-10-09T09:55:29.621Z,983.25
2018-10-09T09:56:29.628Z,983.30
2018-10-09T09:57:29.631Z,983.30
2018-10-09T09:58:29.756Z,983.30
2018-10-09T09:59:29.642Z,983.30
2018-10-09T10:00:29.658Z,983.31
2018-10-09T10:01:29.656Z,983.30
2018-10-09T10:02:29.665Z,983.29
2018-10-09T10:03:29.733Z,983.31
2018-10-09T10:04:29.679Z,983.34
2018-10-09T10:05:29.678Z,983.35
2018-10-09T10:06:29.683Z,983.32
2018-10-09T10:07:29.690Z,983.35
2018-10-09T10:08:29.723Z,983.37
2018-10-09T10:09:29.705Z,983.39
2018-10-09T10:10:29.711Z,983.39
2018-10-09T10:11:29.712Z,983.46
2018-10-09T10:12:29.836Z,983.42
2018-10-09T10:13:29.724Z,983.43
2018-10-09T10:14:29.731Z,983.44
2018-10-09T10:15:29.736Z,983.47
2018-10-09T10:16:29.747Z,983.46
2018-10-09T10:17:29.776Z,983.43
2018-10-09T10:18:29.756Z,983.41
2018-10-09T10:19:29.764Z,983.41
2018-10-09T10:20:29.772Z,983.39
2018-10-09T10:21:29.822Z,983.36
2018-10-09T10:22:29.824Z,983.37
2018-10-09T10:23:29.793Z,983.36
2018-10-09T10:24:29.800Z,983.35
2018-10-09T10:25:30.380Z,983.34
2018-10-09T10:26:29.849Z,983.33
2018-10-09T10:27:29.876Z,983.32
2018-10-09T10:28:29.885Z,983.36
2018-10-09T10:29:29.847Z,983.34
2018-10-09T10:30:29.852Z,983.36
2018-10-09T10:31:29.855Z,983.39
2018-10-09T10:32:29.863Z,983.43
2018-10-09T10:33:29.903Z,983.35
2018-10-09T10:34:29.879Z,983.39
2018-10-09T10:35:29.901Z,983.40
2018-10-09T10:36:29.905Z,983.44
2018-10-09T10:37:29.906Z,983.50
2018-10-09T10:38:29.938Z,983.55
2018-10-09T10:39:29.922Z,983.61
2018-10-09T10:40:29.929Z,983.60
2018-10-09T10:41:29.946Z,983.62
2018-10-09T10:42:29.951Z,983.61
2018-10-09T10:43:29.987Z,983.63
2018-10-09T10:44:29.974Z,983.57
2018-10-09T10:45:30.134Z,983.60
2018-10-09T10:46:29.995Z,983.63
2018-10-09T10:47:30.031Z,983.56
2018-10-09T10:48:30.017Z,983.65
2018-10-09T10:49:30.059Z,983.65
2018-10-09T10:50:30.048Z,983.65
2018-10-09T10:51:30.052Z,983.66
2018-10-09T10:52:30.099Z,983.67
2018-10-09T10:53:30.082Z,983.64
2018-10-09T10:54:30.086Z,983.63
2018-10-09T10:55:30.104Z,983.59
2018-10-09T10:56:30.123Z,983.51
2018-10-09T10:57:30.211Z,983.47
2018-10-09T10:58:30.149Z,983.43
2018-10-09T10:59:30.166Z,983.39
2018-10-09T11:00:30.180Z,983.38
2018-10-09T11:01:30.232Z,983.36
2018-10-09T11:02:30.238Z,983.41
2018-10-09T11:03:30.218Z,983.43
2018-10-09T11:04:30.237Z,983.39
2018-10-09T11:05:30.248Z,983.34
2018-10-09T11:06:30.262Z,983.40
2018-10-09T11:07:30.298Z,983.48
2018-10-09T11:08:30.319Z,983.49
2018-10-09T11:09:30.303Z,983.45
2018-10-09T11:10:30.317Z,983.43
2018-10-09T11:11:30.327Z,983.41
2018-10-09T11:12:30.370Z,983.33
2018-10-09T11:13:30.359Z,983.26
2018-10-09T11:14:30.384Z,983.20
2018-10-09T11:15:30.387Z,983.24
2018-10-09T11:16:30.403Z,983.33
2018-10-09T11:17:30.440Z,983.37
2018-10-09T11:18:30.431Z,983.43
2018-10-09T11:19:30.443Z,983.42
2018-10-09T11:20:30.459Z,983.44
2018-10-09T11:21:30.484Z,983.51
2018-10-09T11:22:30.515Z,983.52
2018-10-09T11:23:30.504Z,983.49
2018-10-09T11:24:30.513Z,983.46
2018-10-09T11:25:30.534Z,983.45
2018-10-09T11:26:30.548Z,983.42
2018-10-09T11:27:30.588Z,983.47
2018-10-09T11:28:30.603Z,983.53
2018-10-09T11:29:30.592Z,983.49
2018-10-09T11:30:30.603Z,983.46
2018-10-09T11:31:30.624Z,983.47
2018-10-09T11:32:30.678Z,983.47
2018-10-09T11:33:30.661Z,983.54
2018-10-09T11:34:30.676Z,983.53
2018-10-09T11:35:30.727Z,983.46
2018-10-09T11:36:30.708Z,983.47
2018-10-09T11:37:30.785Z,983.43
2018-10-09T11:38:30.774Z,983.44
2018-10-09T11:39:30.761Z,983.44
2018-10-09T11:40:30.779Z,983.48
2018-10-09T11:41:30.802Z,983.50
2018-10-09T11:42:30.849Z,983.43
2018-10-09T11:43:30.830Z,983.41
2018-10-09T11:44:30.875Z,983.45
2018-10-09T11:45:30.863Z,983.41
2018-10-09T11:46:30.888Z,983.42
2018-10-09T11:47:30.906Z,983.36
2018-10-09T11:48:30.950Z,983.35
2018-10-09T11:49:30.937Z,983.32
2018-10-09T11:50:30.964Z,983.35
2018-10-09T11:51:30.978Z,983.34
2018-10-09T11:52:30.998Z,983.35
2018-10-09T11:53:31.055Z,983.40
2018-10-09T11:54:31.036Z,983.43
2018-10-09T11:55:31.058Z,983.42
2018-10-09T11:56:31.075Z,983.39
2018-10-09T11:57:31.091Z,983.41
2018-10-09T11:58:31.159Z,983.35
2018-10-09T11:59:31.131Z,983.29
2018-10-09T12:00:31.154Z,983.22
2018-10-09T12:01:31.780Z,983.18
2018-10-09T12:02:31.280Z,983.12
2018-10-09T12:03:32.785Z,983.10
2018-10-09T12:04:31.230Z,983.13
2018-10-09T12:05:33.035Z,983.11
2018-10-09T12:06:31.277Z,983.15
2018-10-09T12:07:31.281Z,983.14
2018-10-09T12:08:31.343Z,983.17
2018-10-09T12:09:31.326Z,983.21
2018-10-09T12:10:31.348Z,983.17
2018-10-09T12:11:31.361Z,983.20
2018-10-09T12:12:31.914Z,983.24
2018-10-09T12:13:31.460Z,983.19
2018-10-09T12:14:31.418Z,983.19
2018-10-09T12:15:31.462Z,983.15
2018-10-09T12:16:31.462Z,983.16
2018-10-09T12:17:31.506Z,983.18
2018-10-09T12:18:31.500Z,983.17
2018-10-09T12:19:31.519Z,983.15
2018-10-09T12:20:31.545Z,983.14
2018-10-09T12:21:32.444Z,983.14
2018-10-09T12:22:31.605Z,983.11
2018-10-09T12:23:31.621Z,983.14
2018-10-09T12:24:31.635Z,983.10
2018-10-09T12:25:31.639Z,983.07
2018-10-09T12:26:31.655Z,983.08
2018-10-09T12:27:31.708Z,983.05
2018-10-09T12:28:31.721Z,983.02